createdAt,value
2023-01-18T00:00:12.211Z,3.16
2023-01-18T00:05:31.441Z,3.14
2023-01-18T00:10:50.319Z,3.17
2023-01-18T00:21:28.814Z,3.13
2023-01-18T00:37:26.717Z,3.11
2023-01-18T00:48:05.025Z,3.13
2023-01-18T00:53:24.032Z,3.09
2023-01-18T01:04:02.413Z,3.09
2023-01-18T01:19:59.568Z,3.09
2023-01-18T01:30:38.595Z,3.07
2023-01-18T01:35:57.467Z,3.07
2023-01-18T01:46:36.007Z,3.06
2023-01-18T02:02:34.440Z,3.06
2023-01-18T02:18:31.831Z,3.03
2023-01-18T02:29:10.377Z,3.04
2023-01-18T02:34:29.667Z,3.01
2023-01-18T02:45:07.789Z,3.01
2023-01-18T03:01:06.203Z,3.01
2023-01-18T03:11:44.639Z,3
2023-01-18T03:17:03.788Z,3
2023-01-18T03:27:41.586Z,3
2023-01-18T03:43:38.597Z,3
2023-01-18T03:54:17.789Z,3
2023-01-18T03:59:37.003Z,2.97
2023-01-18T04:10:15.444Z,3
2023-01-18T04:20:54.616Z,2.97
2023-01-18T04:26:24.384Z,2.97
2023-01-18T04:31:33.943Z,2.99
2023-01-18T04:36:53.565Z,2.99
2023-01-18T04:47:31.952Z,2.97
2023-01-18T05:03:30.032Z,2.97
2023-01-18T05:14:08.592Z,2.95
2023-01-18T05:19:28.281Z,2.97
2023-01-18T05:30:07.103Z,2.96
2023-01-18T05:35:26.234Z,2.96
2023-01-18T05:40:45.489Z,2.97
2023-01-18T05:46:04.925Z,2.96
2023-01-18T05:51:24.292Z,2.96
2023-01-18T05:56:43.957Z,2.97
2023-01-18T06:02:03.384Z,2.96
2023-01-18T06:12:42.267Z,2.96
2023-01-18T06:18:01.332Z,2.97
2023-01-18T06:28:40.249Z,2.96
2023-01-18T06:39:19.259Z,2.96
2023-01-18T06:44:38.544Z,2.95
2023-01-18T06:55:16.747Z,2.95
2023-01-18T07:00:36.026Z,2.93
2023-01-18T07:05:55.511Z,2.95
2023-01-18T07:11:14.397Z,2.92
2023-01-18T07:27:46.178Z,2.95
2023-01-18T07:33:05.672Z,2.95
2023-01-18T07:43:45.152Z,2.92
2023-01-18T07:49:04.345Z,2.93
2023-01-18T07:59:43.293Z,2.9
2023-01-18T08:15:40.245Z,2.9
2023-01-18T08:20:59.875Z,2.92
2023-01-18T08:26:19.706Z,2.93
2023-01-18T08:31:39.233Z,2.92
2023-01-18T08:42:17.104Z,2.9
2023-01-18T08:58:14.582Z,2.92
2023-01-18T09:03:33.581Z,2.9
2023-01-18T09:08:52.400Z,2.9
2023-01-18T09:24:50.498Z,2.9
2023-01-18T09:30:09.891Z,2.92
2023-01-18T09:40:48.434Z,2.89
2023-01-18T09:51:27.120Z,2.9
2023-01-18T10:02:05.911Z,2.87
2023-01-18T10:07:25.301Z,2.9
2023-01-18T10:12:44.435Z,2.9
2023-01-18T10:18:04.077Z,2.9
2023-01-18T10:23:23.521Z,2.89
2023-01-18T10:34:02.176Z,2.9
2023-01-18T10:39:21.358Z,2.89
2023-01-18T10:50:00.358Z,2.87
2023-01-18T11:05:57.817Z,2.89
2023-01-18T11:16:37.015Z,2.87
2023-01-18T11:27:17.287Z,2.87
2023-01-18T11:43:14.606Z,2.86
2023-01-18T11:53:52.624Z,2.9
2023-01-18T11:59:12.855Z,2.89
2023-01-18T12:04:31.495Z,2.87
2023-01-18T12:09:50.505Z,2.87
2023-01-18T12:15:09.847Z,2.89
2023-01-18T12:25:48.932Z,2.87
2023-01-18T12:36:27.592Z,2.89
2023-01-18T12:41:46.742Z,2.86
2023-01-18T12:52:25.406Z,2.87
2023-01-18T12:57:46.514Z,2.87
2023-01-18T13:03:04.253Z,2.86
2023-01-18T13:08:23.631Z,2.86
2023-01-18T13:19:03.075Z,2.87
2023-01-18T13:24:22.693Z,2.86
2023-01-18T13:35:18.868Z,2.86
2023-01-18T13:40:21.422Z,2.85
2023-01-18T13:50:59.184Z,2.85
2023-01-18T14:06:57.312Z,2.85
2023-01-18T14:12:16.921Z,2.83
2023-01-18T14:17:38.178Z,2.83
2023-01-18T14:22:55.388Z,2.83
2023-01-18T14:33:33.415Z,2.82
2023-01-18T14:38:53.150Z,2.82
2023-01-18T14:44:12.786Z,2.83
2023-01-18T14:49:32.348Z,2.82
2023-01-18T15:00:11.108Z,2.82
2023-01-18T15:05:30.643Z,2.8
2023-01-18T15:16:09.458Z,2.82
2023-01-18T15:32:06.695Z,2.82
2023-01-18T15:42:45.892Z,2.79
2023-01-18T15:48:05.330Z,2.77
2023-01-18T15:58:44.479Z,2.75
2023-01-18T16:14:42.391Z,2.77
2023-01-18T16:30:40.158Z,2.75
2023-01-18T16:41:18.315Z,2.72
2023-01-18T16:57:16.760Z,2.73
2023-01-18T17:07:55.452Z,2.75
2023-01-18T17:13:14.614Z,2.72
2023-01-18T17:23:53.998Z,2.72
2023-01-18T17:29:13.248Z,2.72
2023-01-18T17:40:09.966Z,2.71
2023-01-18T17:55:49.042Z,2.69
2023-01-18T18:06:31.375Z,2.69
2023-01-18T18:17:14.329Z,2.69
2023-01-18T18:27:46.339Z,2.67
2023-01-18T18:33:04.229Z,2.66
2023-01-18T18:43:43.019Z,2.65
2023-01-18T18:49:02.110Z,2.65
2023-01-18T18:59:40.649Z,2.63
2023-01-18T19:05:00.045Z,2.63
2023-01-18T19:10:19.086Z,2.63
2023-01-18T19:15:38.728Z,2.62
2023-01-18T19:26:17.647Z,2.59
2023-01-18T19:31:36.550Z,2.57
2023-01-18T19:42:15.115Z,2.55
2023-01-18T19:58:14.292Z,2.49
2023-01-18T20:08:53.462Z,2.45
2023-01-18T20:14:12.896Z,2.48
2023-01-18T20:19:32.577Z,2.44
2023-01-18T20:24:52.857Z,2.44
2023-01-18T20:40:50.377Z,2.38
2023-01-18T20:51:29.184Z,2.32
2023-01-18T20:56:48.479Z,2.31
2023-01-18T21:07:28.052Z,2.29
2023-01-18T21:12:49.008Z,2.25
2023-01-18T21:18:07.383Z,2.24
2023-01-18T21:23:25.778Z,2.24
2023-01-18T21:28:44.920Z,2.21
2023-01-18T21:34:03.842Z,2.22
2023-01-18T21:39:22.839Z,2.18
2023-01-18T21:44:42.151Z,2.2
2023-01-18T21:50:16.853Z,2.18
2023-01-18T21:55:20.961Z,2.15
2023-01-18T22:06:00.101Z,2.14
2023-01-18T22:16:38.617Z,2.09
2023-01-18T22:21:57.670Z,2.07
2023-01-18T22:32:37.107Z,2.07
2023-01-18T22:37:56.403Z,2.01
2023-01-18T22:48:35.198Z,2
2023-01-18T22:59:13.633Z,1.95
2023-01-18T23:04:33.356Z,1.95
2023-01-18T23:15:12.603Z,1.93
2023-01-18T23:20:32.057Z,1.91
2023-01-18T23:31:11.082Z,1.87
2023-01-18T23:41:49.558Z,1.91
2023-01-18T23:47:09.266Z,1.88
2023-01-18T23:57:47.458Z,1.84
